Avondale, Alabama
Current Conditions -  °F | °C
As of 8:53 AM on Sunday 23 Nov 2014 (Local Time) from KBHM Reporting Station
Haze Haze  
Wind Chill: 58°   Ceiling: 800
Heat Index: 58°   Visibility: 5mi
Dew Point: 56°   Wind: 10mph
Humidity: 93%   Direction: 110°ESE
Pressure: 29.87"   Gusts: NA
Location:  33.5222°N, 86.7699°W
Report Text: KBHM 231453Z 11009KT 5SM BR BKN008 OVC012 14/13 A2987 RMK AO2 RAE1358DZB15E48 SLP110 P0001 60006 T01440133 58012
Loading
Personal Weather Stations






























Interactive Weather Map New forecast layout! Learn more

10-Day Weather Forecast

Advertisements
Track Severe Weather on mobile